Time;durP1;ratioP1;P1;durP2;ratioP2;P2;SDS_P1;SDS_P2;PMS_P1;PMS_P2;Temp;Humidity;BMP_temperature;BMP_pressure;BME280_temperature;BME280_humidity;BME280_pressure;Samples;Min_cycle;Max_cycle;Signal;HPM_P1;HPM_P2
2022/05/09 00:00:35;;;;;;;5.65;2.50;;;;;;;;;;5080580;28;20048;-84
2022/05/09 00:03:20;;;;;;;5.43;2.30;;;;;;;;;;5081394;28;20451;-84
2022/05/09 00:06:06;;;;;;;5.38;2.50;;;;;;;;;;5081043;28;20052;-83
2022/05/09 00:08:56;;;;;;;5.43;2.60;;;;;;;;;;5080306;28;20044;-84
2022/05/09 00:11:42;;;;;;;6.82;2.70;;;;;;;;;;5080656;28;20052;-82
2022/05/09 00:14:28;;;;;;;8.60;3.45;;;;;;;;;;5060211;28;20487;-82
2022/05/09 00:17:13;;;;;;;4.63;2.85;;;;;;;;;;5060965;28;20053;-82
2022/05/09 00:19:59;;;;;;;10.00;2.63;;;;;;;;;;5053797;28;20040;-82
2022/05/09 00:22:48;;;;;;;7.85;2.80;;;;;;;;;;5053326;28;20045;-81
2022/05/09 00:25:33;;;;;;;4.63;2.67;;;;;;;;;;5060421;28;20480;-81
2022/05/09 00:28:18;;;;;;;6.55;2.92;;;;;;;;;;5060155;28;20037;-81
2022/05/09 00:31:04;;;;;;;3.88;2.65;;;;;;;;;;5053679;28;20400;-81
2022/05/09 00:33:50;;;;;;;9.07;3.03;;;;;;;;;;5060719;28;20464;-84
2022/05/09 00:36:36;;;;;;;6.53;3.72;;;;;;;;;;5053609;28;20053;-81
2022/05/09 00:39:22;;;;;;;9.20;3.00;;;;;;;;;;5064433;28;20049;-81
2022/05/09 00:42:13;;;;;;;5.20;2.80;;;;;;;;;;5064349;28;20049;-83
2022/05/09 00:44:58;;;;;;;4.60;2.70;;;;;;;;;;5064564;28;20045;-84
2022/05/09 00:47:44;;;;;;;5.07;2.75;;;;;;;;;;5064201;28;20041;-83
2022/05/09 00:50:31;;;;;;;3.58;2.50;;;;;;;;;;5057082;28;20045;-82
2022/05/09 00:53:17;;;;;;;5.03;2.78;;;;;;;;;;5064308;28;20041;-81
2022/05/09 00:56:10;;;;;;;6.63;2.70;;;;;;;;;;5064068;28;20049;-85
2022/05/09 00:59:00;;;;;;;5.18;3.20;;;;;;;;;;5064070;28;20044;-83
2022/05/09 01:01:47;;;;;;;6.72;2.67;;;;;;;;;;5063734;28;20053;-82
2022/05/09 01:04:40;;;;;;;4.68;2.97;;;;;;;;;;5063705;28;20075;-83
2022/05/09 01:07:27;;;;;;;8.68;3.28;;;;;;;;;;5063842;28;20057;-82
2022/05/09 01:10:15;;;;;;;7.47;2.85;;;;;;;;;;5057198;28;20045;-83
2022/05/09 01:13:05;;;;;;;5.80;3.35;;;;;;;;;;5069721;28;20048;-82
2022/05/09 01:15:53;;;;;;;5.55;3.13;;;;;;;;;;5084209;28;20048;-82
2022/05/09 01:18:39;;;;;;;5.05;3.00;;;;;;;;;;5083490;28;20057;-83
2022/05/09 01:21:28;;;;;;;8.00;3.60;;;;;;;;;;5084168;28;20048;-82
2022/05/09 01:24:21;;;;;;;5.95;3.15;;;;;;;;;;5086082;28;20044;-83
2022/05/09 01:27:06;;;;;;;16.15;4.50;;;;;;;;;;5089053;28;20052;-82
2022/05/09 01:30:00;;;;;;;11.80;3.92;;;;;;;;;;5081919;28;20402;-83
2022/05/09 01:32:49;;;;;;;9.57;3.75;;;;;;;;;;5088731;28;20053;-82
2022/05/09 01:35:38;;;;;;;7.43;2.70;;;;;;;;;;5088836;28;20048;-82
2022/05/09 01:38:33;;;;;;;7.97;3.30;;;;;;;;;;5088170;28;20052;-82
2022/05/09 01:41:19;;;;;;;6.32;3.40;;;;;;;;;;5089099;28;20052;-83
2022/05/09 01:44:05;;;;;;;12.10;3.65;;;;;;;;;;5084334;28;20044;-82
2022/05/09 01:49:54;;;;;;;7.93;3.20;;;;;;;;;;5082803;28;20044;-82
2022/05/09 01:52:40;;;;;;;5.75;2.85;;;;;;;;;;5082530;28;20387;-83
2022/05/09 01:55:25;;;;;;;7.68;3.50;;;;;;;;;;5082959;28;20053;-82
2022/05/09 01:58:11;;;;;;;5.45;3.15;;;;;;;;;;5068276;28;20044;-83
2022/05/09 02:00:59;;;;;;;11.75;3.05;;;;;;;;;;5082621;28;20045;-83
2022/05/09 02:03:45;;;;;;;4.75;3.20;;;;;;;;;;5068162;28;20052;-82
2022/05/09 02:06:34;;;;;;;9.93;3.42;;;;;;;;;;5082269;28;20060;-83
2022/05/09 02:09:20;;;;;;;5.45;3.35;;;;;;;;;;5076151;28;20052;-82
2022/05/09 02:12:06;;;;;;;4.15;3.15;;;;;;;;;;5075777;28;20056;-83
2022/05/09 02:14:50;;;;;;;5.85;3.45;;;;;;;;;;5081927;28;20040;-82
2022/05/09 02:17:37;;;;;;;5.82;3.22;;;;;;;;;;5067586;28;20218;-83
2022/05/09 02:20:22;;;;;;;3.70;2.80;;;;;;;;;;5082184;28;20048;-82
2022/05/09 02:23:07;;;;;;;4.97;3.00;;;;;;;;;;5082433;28;20049;-81
2022/05/09 02:25:53;;;;;;;6.93;3.10;;;;;;;;;;5082596;28;20472;-81
2022/05/09 02:28:42;;;;;;;4.05;2.90;;;;;;;;;;5075223;28;20052;-83
2022/05/09 02:31:27;;;;;;;4.53;3.00;;;;;;;;;;5082461;28;20391;-83
2022/05/09 02:34:13;;;;;;;8.32;2.90;;;;;;;;;;5082325;28;20060;-82
2022/05/09 02:36:59;;;;;;;7.85;3.10;;;;;;;;;;5075319;28;20044;-83
2022/05/09 02:39:45;;;;;;;4.55;2.85;;;;;;;;;;5082501;28;20425;-82
2022/05/09 02:42:30;;;;;;;5.90;3.08;;;;;;;;;;5075131;28;20045;-83
2022/05/09 02:45:16;;;;;;;9.30;2.95;;;;;;;;;;5082011;28;20402;-83
2022/05/09 02:48:02;;;;;;;6.88;2.97;;;;;;;;;;5075146;28;20045;-83
2022/05/09 02:50:48;;;;;;;5.43;3.08;;;;;;;;;;5081992;28;20048;-82
2022/05/09 02:53:35;;;;;;;8.73;3.50;;;;;;;;;;5082107;28;20044;-82
2022/05/09 02:56:21;;;;;;;5.85;3.30;;;;;;;;;;5081374;28;20048;-82
2022/05/09 02:59:06;;;;;;;8.10;3.70;;;;;;;;;;5082423;28;20052;-82
2022/05/09 03:01:51;;;;;;;4.35;3.08;;;;;;;;;;5081983;28;20049;-83
2022/05/09 03:04:40;;;;;;;7.32;3.13;;;;;;;;;;5081453;28;20044;-82
2022/05/09 03:07:27;;;;;;;7.63;3.60;;;;;;;;;;5060501;28;20399;-82
2022/05/09 03:10:12;;;;;;;9.05;3.47;;;;;;;;;;5081448;28;20053;-82
2022/05/09 03:12:59;;;;;;;5.35;2.83;;;;;;;;;;5078746;28;20048;-82
2022/05/09 03:15:46;;;;;;;9.52;3.58;;;;;;;;;;5081892;28;20052;-83
2022/05/09 03:18:32;;;;;;;6.63;3.35;;;;;;;;;;5081559;28;20056;-82
2022/05/09 03:21:18;;;;;;;7.70;4.38;;;;;;;;;;5074364;28;20483;-82
2022/05/09 03:24:03;;;;;;;12.80;4.10;;;;;;;;;;5081219;28;20048;-82
2022/05/09 03:26:49;;;;;;;7.90;4.10;;;;;;;;;;5083701;28;20052;-82
2022/05/09 03:29:34;;;;;;;8.68;3.17;;;;;;;;;;5083957;28;20045;-83
2022/05/09 03:32:20;;;;;;;5.00;3.53;;;;;;;;;;5081419;28;20481;-82
2022/05/09 03:35:08;;;;;;;7.07;3.50;;;;;;;;;;5081170;28;20052;-81
2022/05/09 03:37:54;;;;;;;11.00;4.22;;;;;;;;;;5081094;28;20053;-84
2022/05/09 03:40:40;;;;;;;6.95;3.80;;;;;;;;;;5081459;28;20052;-83
2022/05/09 03:43:25;;;;;;;12.93;3.72;;;;;;;;;;5074842;28;20032;-82
2022/05/09 03:46:11;;;;;;;5.97;2.97;;;;;;;;;;5080709;28;20052;-82
2022/05/09 03:48:57;;;;;;;6.95;3.80;;;;;;;;;;5081067;28;20060;-82
2022/05/09 03:51:42;;;;;;;7.15;3.17;;;;;;;;;;5073759;28;20036;-82
2022/05/09 03:54:27;;;;;;;10.07;3.17;;;;;;;;;;5080786;28;20056;-83
2022/05/09 03:57:13;;;;;;;6.80;3.35;;;;;;;;;;5080729;28;20044;-82
2022/05/09 04:00:04;;;;;;;6.78;3.10;;;;;;;;;;5080075;28;20048;-82
2022/05/09 04:02:50;;;;;;;9.25;3.20;;;;;;;;;;5080496;28;20059;-82
2022/05/09 04:05:36;;;;;;;5.00;3.35;;;;;;;;;;5073709;28;20048;-83
2022/05/09 04:08:22;;;;;;;7.28;3.10;;;;;;;;;;5073992;28;20040;-83
2022/05/09 04:11:07;;;;;;;17.30;5.13;;;;;;;;;;5080296;28;20045;-82
2022/05/09 04:13:53;;;;;;;16.38;5.13;;;;;;;;;;5074811;28;20052;-83
2022/05/09 04:16:50;;;;;;;15.18;6.40;;;;;;;;;;5080720;28;20045;-82
2022/05/09 04:19:37;;;;;;;15.98;5.80;;;;;;;;;;5080631;28;20056;-82
2022/05/09 04:22:22;;;;;;;9.55;4.82;;;;;;;;;;5074188;28;20037;-83
2022/05/09 04:25:08;;;;;;;13.35;4.78;;;;;;;;;;5073803;28;20037;-83
2022/05/09 04:27:56;;;;;;;11.68;4.65;;;;;;;;;;5079807;28;20044;-83
2022/05/09 04:30:42;;;;;;;16.83;4.43;;;;;;;;;;5080115;28;20479;-83
2022/05/09 04:33:27;;;;;;;13.00;4.70;;;;;;;;;;5080750;28;20052;-83
2022/05/09 04:36:12;;;;;;;16.42;5.47;;;;;;;;;;5080321;28;20044;-83
2022/05/09 04:38:58;;;;;;;18.42;6.65;;;;;;;;;;5080708;28;20044;-82
2022/05/09 04:41:43;;;;;;;23.38;6.63;;;;;;;;;;5073442;28;20048;-83
2022/05/09 04:44:28;;;;;;;10.70;5.15;;;;;;;;;;5073556;28;20052;-82
2022/05/09 04:47:14;;;;;;;8.98;4.80;;;;;;;;;;5079956;28;20045;-83
2022/05/09 04:49:59;;;;;;;10.63;4.55;;;;;;;;;;5079783;28;20040;-82
2022/05/09 04:52:45;;;;;;;7.57;4.57;;;;;;;;;;5080293;28;20048;-83
2022/05/09 04:55:30;;;;;;;8.73;4.18;;;;;;;;;;5079962;28;20388;-83
2022/05/09 04:58:19;;;;;;;12.80;4.68;;;;;;;;;;5074114;28;20049;-83
2022/05/09 05:01:03;;;;;;;8.45;3.85;;;;;;;;;;5080097;28;20048;-83
2022/05/09 05:03:48;;;;;;;12.32;4.38;;;;;;;;;;5080025;28;20386;-83
2022/05/09 05:06:34;;;;;;;8.88;4.85;;;;;;;;;;5080408;28;20041;-84
2022/05/09 05:09:19;;;;;;;11.98;4.88;;;;;;;;;;5079646;28;20044;-83
2022/05/09 05:12:05;;;;;;;7.95;4.00;;;;;;;;;;5079728;28;20041;-82
2022/05/09 05:14:51;;;;;;;11.88;4.25;;;;;;;;;;5073644;28;20053;-82
2022/05/09 05:17:37;;;;;;;12.55;4.78;;;;;;;;;;5080245;28;20052;-83
2022/05/09 05:20:23;;;;;;;10.10;5.07;;;;;;;;;;5079948;28;20044;-82
2022/05/09 05:23:09;;;;;;;10.50;5.03;;;;;;;;;;5073293;28;20044;-83
2022/05/09 05:25:55;;;;;;;11.73;4.35;;;;;;;;;;5083709;28;20053;-82
2022/05/09 05:28:40;;;;;;;11.95;4.85;;;;;;;;;;5083868;28;20045;-82
2022/05/09 05:31:25;;;;;;;7.97;4.40;;;;;;;;;;5076947;28;20048;-83
2022/05/09 05:34:11;;;;;;;14.70;4.93;;;;;;;;;;5083694;28;20052;-84
2022/05/09 05:36:56;;;;;;;13.80;5.38;;;;;;;;;;5076474;28;20414;-82
2022/05/09 05:39:46;;;;;;;10.63;4.40;;;;;;;;;;5083431;28;20403;-82
2022/05/09 05:42:32;;;;;;;7.70;3.90;;;;;;;;;;5076400;28;20041;-83
2022/05/09 05:45:20;;;;;;;10.27;4.32;;;;;;;;;;5082861;28;20044;-82
2022/05/09 05:48:07;;;;;;;11.10;4.35;;;;;;;;;;5083331;28;20048;-83
2022/05/09 05:50:52;;;;;;;11.68;4.40;;;;;;;;;;5075885;28;20044;-86
2022/05/09 05:53:38;;;;;;;12.73;5.15;;;;;;;;;;5083255;28;20052;-82
2022/05/09 05:56:24;;;;;;;12.05;4.65;;;;;;;;;;5083157;28;20041;-81
2022/05/09 05:59:09;;;;;;;10.57;5.43;;;;;;;;;;5077991;28;20057;-82
2022/05/09 06:01:54;;;;;;;9.20;5.35;;;;;;;;;;5072373;28;20053;-83
2022/05/09 06:04:39;;;;;;;16.13;5.13;;;;;;;;;;5080233;28;20040;-82
2022/05/09 06:07:25;;;;;;;13.98;4.70;;;;;;;;;;5086734;28;20056;-84
2022/05/09 06:10:12;;;;;;;11.60;5.70;;;;;;;;;;5085986;28;20044;-81
2022/05/09 06:13:02;;;;;;;14.15;5.55;;;;;;;;;;5083913;28;20130;-83
2022/05/09 06:15:49;;;;;;;12.63;5.88;;;;;;;;;;5071832;28;20082;-84
2022/05/09 06:18:35;;;;;;;10.95;5.68;;;;;;;;;;5093280;28;20052;-81
2022/05/09 06:21:22;;;;;;;10.90;5.18;;;;;;;;;;5094105;28;20479;-79
2022/05/09 06:24:08;;;;;;;8.27;4.35;;;;;;;;;;5096513;28;20048;-79
2022/05/09 06:26:54;;;;;;;10.48;4.13;;;;;;;;;;5095414;28;20045;-82
2022/05/09 06:29:39;;;;;;;10.25;4.90;;;;;;;;;;5080200;28;20029;-80
2022/05/09 06:32:25;;;;;;;10.98;4.78;;;;;;;;;;5088301;28;20044;-81
2022/05/09 06:35:14;;;;;;;9.35;4.57;;;;;;;;;;5092180;28;20061;-80
2022/05/09 06:38:04;;;;;;;8.52;4.80;;;;;;;;;;5090189;28;20044;-82
2022/05/09 06:40:50;;;;;;;16.08;5.72;;;;;;;;;;5092453;28;20052;-82
2022/05/09 06:43:35;;;;;;;10.82;4.65;;;;;;;;;;5093961;28;20048;-81
2022/05/09 06:46:21;;;;;;;13.52;4.55;;;;;;;;;;5095986;28;20040;-84
2022/05/09 06:49:08;;;;;;;14.05;4.88;;;;;;;;;;5091360;28;20044;-82
2022/05/09 06:51:53;;;;;;;11.85;4.70;;;;;;;;;;5098028;28;20044;-83
2022/05/09 06:54:39;;;;;;;12.23;4.25;;;;;;;;;;5082673;28;20048;-83
2022/05/09 06:57:26;;;;;;;8.18;4.85;;;;;;;;;;5089955;28;20052;-86
2022/05/09 07:00:15;;;;;;;7.07;4.50;;;;;;;;;;5089522;28;20052;-84
2022/05/09 07:03:01;;;;;;;10.43;5.03;;;;;;;;;;5089475;28;20040;-84
2022/05/09 07:05:48;;;;;;;9.35;4.35;;;;;;;;;;5090116;28;20040;-84
2022/05/09 07:08:34;;;;;;;9.63;5.00;;;;;;;;;;5089992;28;20048;-83
2022/05/09 07:11:19;;;;;;;12.38;4.95;;;;;;;;;;5083268;28;20048;-82
2022/05/09 07:14:07;;;;;;;8.80;4.60;;;;;;;;;;5084762;28;20418;-85
2022/05/09 07:16:52;;;;;;;8.90;4.28;;;;;;;;;;5091921;28;20040;-86
2022/05/09 07:19:38;;;;;;;10.43;4.50;;;;;;;;;;5087438;28;20049;-85
2022/05/09 07:22:26;;;;;;;7.65;4.20;;;;;;;;;;5080598;28;20048;-85
2022/05/09 07:25:17;;;;;;;11.07;4.30;;;;;;;;;;5082299;28;20036;-85
2022/05/09 07:28:11;;;;;;;10.38;4.65;;;;;;;;;;5079513;28;20041;-84
2022/05/09 07:30:59;;;;;;;10.57;4.38;;;;;;;;;;5074089;28;20052;-84
2022/05/09 07:33:44;;;;;;;11.32;3.83;;;;;;;;;;5062865;28;20511;-86
2022/05/09 07:36:29;;;;;;;14.77;4.15;;;;;;;;;;5086946;28;20044;-83
2022/05/09 07:39:15;;;;;;;9.70;3.42;;;;;;;;;;5056887;28;20464;-85
2022/05/09 07:42:00;;;;;;;7.63;4.07;;;;;;;;;;5081166;28;20483;-84
2022/05/09 07:44:46;;;;;;;7.72;3.60;;;;;;;;;;5079241;28;20036;-82
2022/05/09 07:47:32;;;;;;;9.77;3.85;;;;;;;;;;5084538;28;20056;-85
2022/05/09 07:50:18;;;;;;;15.65;3.80;;;;;;;;;;5079987;28;20040;-85
2022/05/09 07:53:08;;;;;;;12.25;3.85;;;;;;;;;;5085486;28;20044;-84
2022/05/09 07:55:54;;;;;;;7.22;3.25;;;;;;;;;;5081139;28;20040;-83
2022/05/09 07:58:39;;;;;;;11.35;3.90;;;;;;;;;;5070357;28;20399;-85
2022/05/09 08:01:25;;;;;;;6.22;3.17;;;;;;;;;;5082096;28;20044;-85
2022/05/09 08:04:13;;;;;;;7.28;3.10;;;;;;;;;;5084685;28;20479;-84
2022/05/09 08:06:58;;;;;;;14.82;4.22;;;;;;;;;;5086213;28;20048;-84
2022/05/09 08:09:43;;;;;;;7.30;3.38;;;;;;;;;;5078313;28;20099;-83
2022/05/09 08:12:29;;;;;;;10.07;3.33;;;;;;;;;;5082681;28;20041;-84
2022/05/09 08:15:18;;;;;;;9.75;3.20;;;;;;;;;;5087015;28;20040;-82
2022/05/09 08:18:05;;;;;;;7.78;3.33;;;;;;;;;;5083795;28;20379;-83
2022/05/09 08:20:53;;;;;;;7.72;3.25;;;;;;;;;;5071461;28;20387;-83
2022/05/09 08:23:38;;;;;;;9.02;3.30;;;;;;;;;;5078051;28;20471;-83
2022/05/09 08:26:25;;;;;;;8.38;3.03;;;;;;;;;;5086326;28;20423;-82
2022/05/09 08:29:10;;;;;;;7.88;3.38;;;;;;;;;;5069569;28;20044;-84
2022/05/09 08:31:56;;;;;;;7.82;3.22;;;;;;;;;;5080472;28;20044;-83
2022/05/09 08:34:42;;;;;;;7.28;2.72;;;;;;;;;;5077654;28;20511;-83
2022/05/09 08:37:27;;;;;;;6.03;2.83;;;;;;;;;;5084099;28;20044;-83
2022/05/09 08:40:13;;;;;;;5.13;2.60;;;;;;;;;;5086221;28;20056;-83
2022/05/09 08:43:23;;;;;;;4.20;2.47;;;;;;;;;;5083957;28;20040;-84
2022/05/09 08:46:23;;;;;;;4.43;2.58;;;;;;;;;;5078699;28;20033;-83
2022/05/09 08:49:23;;;;;;;5.32;3.00;;;;;;;;;;5082730;28;20478;-86
2022/05/09 08:52:13;;;;;;;5.40;2.70;;;;;;;;;;5075796;28;20499;-83
2022/05/09 08:54:59;;;;;;;4.85;2.58;;;;;;;;;;5082173;28;20040;-82
2022/05/09 08:57:51;;;;;;;8.32;2.92;;;;;;;;;;5081915;28;20403;-84
2022/05/09 09:00:37;;;;;;;8.73;3.20;;;;;;;;;;5086742;28;20057;-83
2022/05/09 09:03:28;;;;;;;9.20;2.63;;;;;;;;;;5085730;28;20398;-83
2022/05/09 09:06:39;;;;;;;4.25;2.60;;;;;;;;;;5086211;28;20468;-83
2022/05/09 09:09:34;;;;;;;9.65;3.00;;;;;;;;;;5084900;28;20048;-82
2022/05/09 09:12:40;;;;;;;14.43;2.83;;;;;;;;;;5084038;28;20056;-83
2022/05/09 09:15:51;;;;;;;8.57;2.78;;;;;;;;;;5078845;28;20419;-81
2022/05/09 09:19:01;;;;;;;9.02;2.83;;;;;;;;;;5078334;28;20044;-83
2022/05/09 09:22:13;;;;;;;4.93;2.50;;;;;;;;;;5078550;28;20542;-82
2022/05/09 09:25:23;;;;;;;8.82;2.50;;;;;;;;;;5085447;28;20472;-82
2022/05/09 09:28:16;;;;;;;6.15;2.60;;;;;;;;;;5078021;28;20045;-84
2022/05/09 09:31:09;;;;;;;7.85;2.58;;;;;;;;;;5078988;28;20416;-84
2022/05/09 09:34:17;;;;;;;4.72;2.15;;;;;;;;;;5069761;28;20471;-83
2022/05/09 09:37:18;;;;;;;7.60;2.60;;;;;;;;;;5070664;28;20044;-84
2022/05/09 09:40:07;;;;;;;7.35;2.83;;;;;;;;;;5085386;28;20049;-84
2022/05/09 09:42:54;;;;;;;6.93;2.13;;;;;;;;;;5069498;28;20040;-86
2022/05/09 09:45:45;;;;;;;7.55;2.53;;;;;;;;;;5078804;28;20048;-84
2022/05/09 09:48:31;;;;;;;8.00;2.20;;;;;;;;;;5054994;28;20041;-85
2022/05/09 09:51:17;;;;;;;6.47;2.42;;;;;;;;;;5084783;28;20036;-84
2022/05/09 09:54:03;;;;;;;4.88;2.58;;;;;;;;;;5078095;28;20475;-86
2022/05/09 09:56:51;;;;;;;5.53;2.50;;;;;;;;;;5070507;28;20040;-83
2022/05/09 09:59:39;;;;;;;5.38;2.78;;;;;;;;;;5055614;28;20044;-84
2022/05/09 10:02:46;;;;;;;4.32;3.00;;;;;;;;;;5070101;28;20403;-84
2022/05/09 10:05:34;;;;;;;8.57;2.80;;;;;;;;;;5077704;28;20478;-84
2022/05/09 10:08:36;;;;;;;8.10;2.60;;;;;;;;;;5077373;28;20036;-85
2022/05/09 10:11:24;;;;;;;6.82;2.80;;;;;;;;;;5061041;28;20471;-85
2022/05/09 10:14:10;;;;;;;8.00;2.75;;;;;;;;;;5077267;28;20052;-85
2022/05/09 10:17:13;;;;;;;14.38;3.83;;;;;;;;;;5053915;28;20041;-85
2022/05/09 10:20:00;;;;;;;7.15;3.20;;;;;;;;;;5067898;28;20040;-84
2022/05/09 10:26:07;;;;;;;7.82;2.88;;;;;;;;;;5075947;28;20044;-81
2022/05/09 10:28:58;;;;;;;15.40;3.50;;;;;;;;;;5082643;28;20036;-82
2022/05/09 10:31:52;;;;;;;6.13;3.00;;;;;;;;;;5082339;28;20045;-84
2022/05/09 10:34:56;;;;;;;5.55;2.90;;;;;;;;;;5082674;28;20037;-84
2022/05/09 10:37:57;;;;;;;8.20;2.72;;;;;;;;;;5081651;28;20044;-85
2022/05/09 10:41:21;;;;;;;7.60;2.60;;;;;;;;;;5053571;28;20036;-86
2022/05/09 10:44:17;;;;;;;9.88;2.90;;;;;;;;;;5026494;28;20403;-82
2022/05/09 10:47:11;;;;;;;7.95;3.00;;;;;;;;;;5082358;28;20479;-82
2022/05/09 10:50:09;;;;;;;9.40;2.83;;;;;;;;;;5075129;28;20040;-84
2022/05/09 10:53:24;;;;;;;5.82;2.88;;;;;;;;;;5075300;28;20040;-83
2022/05/09 10:56:41;;;;;;;11.27;3.20;;;;;;;;;;5076374;28;20049;-83
2022/05/09 10:59:33;;;;;;;10.25;2.83;;;;;;;;;;5052266;28;20044;-84
2022/05/09 11:02:31;;;;;;;5.35;2.70;;;;;;;;;;5059543;28;20052;-85
2022/05/09 11:05:16;;;;;;;10.23;3.03;;;;;;;;;;5074567;28;20399;-84
2022/05/09 11:08:16;;;;;;;9.05;2.80;;;;;;;;;;5081875;28;20463;-84
2022/05/09 11:11:19;;;;;;;6.75;2.70;;;;;;;;;;5080286;28;20040;-85
2022/05/09 11:14:45;;;;;;;7.63;3.07;;;;;;;;;;5074887;28;20041;-84
2022/05/09 11:17:49;;;;;;;8.27;2.40;;;;;;;;;;5084513;28;20041;-83
2022/05/09 11:21:13;;;;;;;4.15;2.75;;;;;;;;;;5077155;28;20467;-84
2022/05/09 11:24:19;;;;;;;4.85;2.95;;;;;;;;;;5074382;28;20048;-84
2022/05/09 11:27:36;;;;;;;6.35;2.70;;;;;;;;;;5074814;28;20040;-84
2022/05/09 11:30:48;;;;;;;8.52;3.03;;;;;;;;;;5066117;28;20487;-84
2022/05/09 11:33:43;;;;;;;4.20;2.75;;;;;;;;;;5059547;28;20045;-82
2022/05/09 11:36:34;;;;;;;;;;;;;;;;;;5081773;28;20135;-83
2022/05/09 11:39:35;;;;;;;8.27;2.90;;;;;;;;;;5059706;28;19917;-83
2022/05/09 11:46:04;;;;;;;7.10;2.85;;;;;;;;;;5080720;28;20399;-83
2022/05/09 11:49:10;;;;;;;11.48;2.80;;;;;;;;;;5074539;28;20049;-88
2022/05/09 11:52:03;;;;;;;7.20;3.13;;;;;;;;;;5080681;28;20044;-85
2022/05/09 11:54:52;;;;;;;10.75;3.30;;;;;;;;;;5073963;28;20506;-84
2022/05/09 11:57:41;;;;;;;7.75;2.55;;;;;;;;;;5059234;28;20052;-86
2022/05/09 12:00:38;;;;;;;8.60;2.42;;;;;;;;;;5066324;28;20044;-87
2022/05/09 12:03:38;;;;;;;;;;;;;;;;;;5059513;28;20403;-87
2022/05/09 12:06:28;;;;;;;7.38;2.60;;;;;;;;;;5051369;28;19912;-84
2022/05/09 12:09:53;;;;;;;5.15;2.30;;;;;;;;;;5051985;28;20045;-87
2022/05/09 12:12:55;;;;;;;7.43;2.47;;;;;;;;;;5073718;28;20044;-88
2022/05/09 12:15:40;;;;;;;7.25;3.00;;;;;;;;;;5065507;28;20048;-87
2022/05/09 12:18:31;;;;;;;6.60;2.38;;;;;;;;;;5060099;28;20044;-86
2022/05/09 12:21:25;;;;;;;6.60;2.40;;;;;;;;;;5074420;28;20048;-87
2022/05/09 12:24:20;;;;;;;6.93;2.63;;;;;;;;;;5059296;28;20040;-86
2022/05/09 12:27:43;;;;;;;4.80;2.55;;;;;;;;;;5074047;28;20495;-86
2022/05/09 12:30:47;;;;;;;4.43;2.53;;;;;;;;;;5074227;28;20053;-85
2022/05/09 12:33:45;;;;;;;4.63;2.25;;;;;;;;;;5052394;28;20053;-86
2022/05/09 12:36:34;;;;;;;8.40;3.00;;;;;;;;;;5078465;28;20032;-86
2022/05/09 12:40:03;;;;;;;5.35;2.53;;;;;;;;;;5070186;28;20044;-85
2022/05/09 12:43:00;;;;;;;7.88;2.30;;;;;;;;;;4977192;28;20043;-86
2022/05/09 12:45:45;;;;;;;4.40;2.45;;;;;;;;;;4976818;28;20039;-85
2022/05/09 12:48:31;;;;;;;7.32;3.10;;;;;;;;;;5070863;28;20041;-86
2022/05/09 12:51:17;;;;;;;7.50;2.50;;;;;;;;;;5062791;28;20045;-86
2022/05/09 12:54:08;;;;;;;5.40;2.20;;;;;;;;;;5069104;28;20052;-87
2022/05/09 12:56:58;;;;;;;7.85;2.60;;;;;;;;;;5069330;28;20036;-85
2022/05/09 12:59:52;;;;;;;6.22;2.40;;;;;;;;;;5069009;28;20036;-86
2022/05/09 13:02:41;;;;;;;7.28;2.45;;;;;;;;;;5064120;28;20048;-86
2022/05/09 13:05:39;;;;;;;8.95;2.30;;;;;;;;;;5063614;28;20464;-86
2022/05/09 13:08:36;;;;;;;3.22;2.22;;;;;;;;;;5078905;28;20052;-86
2022/05/09 13:11:26;;;;;;;6.32;2.20;;;;;;;;;;5062636;28;20040;-87
2022/05/09 13:14:22;;;;;;;3.53;2.40;;;;;;;;;;5078097;28;20048;-86
2022/05/09 13:17:18;;;;;;;4.25;2.20;;;;;;;;;;5078234;28;20045;-87
2022/05/09 13:20:09;;;;;;;8.90;2.60;;;;;;;;;;5079550;28;20037;-86
2022/05/09 13:23:05;;;;;;;6.05;2.10;;;;;;;;;;5066802;28;20048;-84
2022/05/09 13:25:51;;;;;;;4.38;2.08;;;;;;;;;;5076709;28;20498;-83
2022/05/09 13:29:09;;;;;;;5.43;2.20;;;;;;;;;;5092764;28;20041;-86
2022/05/09 13:31:56;;;;;;;3.78;2.03;;;;;;;;;;5085236;28;20037;-83
2022/05/09 13:34:45;;;;;;;6.18;1.83;;;;;;;;;;5089809;28;20048;-83
2022/05/09 13:37:34;;;;;;;5.55;2.40;;;;;;;;;;5086583;28;20387;-82
2022/05/09 13:40:21;;;;;;;6.88;2.35;;;;;;;;;;5071701;28;20032;-84
2022/05/09 13:43:07;;;;;;;8.60;2.53;;;;;;;;;;5085931;28;20044;-84
2022/05/09 13:46:12;;;;;;;5.55;2.28;;;;;;;;;;5087300;28;20045;-86
2022/05/09 13:49:00;;;;;;;4.55;2.10;;;;;;;;;;5078473;28;20040;-85
2022/05/09 13:51:54;;;;;;;6.10;2.05;;;;;;;;;;5078105;28;20041;-84
2022/05/09 13:54:44;;;;;;;;;;;;;;;;;;5079711;28;20052;-85
2022/05/09 13:57:29;;;;;;;3.13;2.05;;;;;;;;;;5078834;28;19913;-84
2022/05/09 14:00:19;;;;;;;6.47;2.75;;;;;;;;;;5078590;28;20044;-86
2022/05/09 14:03:18;;;;;;;4.45;2.30;;;;;;;;;;5084605;28;20395;-85
2022/05/09 14:06:12;;;;;;;5.45;1.92;;;;;;;;;;5078549;28;20040;-85
2022/05/09 14:09:12;;;;;;;4.90;2.15;;;;;;;;;;5085026;28;20052;-84
2022/05/09 14:12:04;;;;;;;7.72;2.47;;;;;;;;;;5070936;28;20499;-85
2022/05/09 14:15:13;;;;;;;5.20;2.20;;;;;;;;;;5079178;28;20407;-85
2022/05/09 14:18:13;;;;;;;7.03;2.08;;;;;;;;;;5085094;28;20045;-87
2022/05/09 14:21:03;;;;;;;4.65;2.05;;;;;;;;;;5077162;28;20045;-84
2022/05/09 14:23:57;;;;;;;9.60;1.70;;;;;;;;;;5083731;28;20048;-85
2022/05/09 14:30:02;;;;;;;3.55;1.75;;;;;;;;;;5076144;28;20044;-86
2022/05/09 14:32:50;;;;;;;5.40;1.98;;;;;;;;;;5083108;28;20048;-86
2022/05/09 14:35:47;;;;;;;6.15;1.65;;;;;;;;;;5069099;28;20045;-87
2022/05/09 14:38:37;;;;;;;4.93;2.00;;;;;;;;;;5075882;28;20041;-87
2022/05/09 14:41:37;;;;;;;3.08;2.00;;;;;;;;;;5076010;28;20049;-87
2022/05/09 14:44:25;;;;;;;10.77;2.17;;;;;;;;;;5082602;28;20049;-87
2022/05/09 14:47:17;;;;;;;4.70;2.10;;;;;;;;;;5075361;28;20044;-87
2022/05/09 14:50:09;;;;;;;6.40;1.98;;;;;;;;;;5067634;28;20044;-87
2022/05/09 14:53:02;;;;;;;4.55;1.80;;;;;;;;;;5075657;28;20475;-86
2022/05/09 14:59:09;;;;;;;3.38;1.80;;;;;;;;;;5075981;28;20048;-86
2022/05/09 15:02:10;;;;;;;7.95;1.92;;;;;;;;;;5082242;28;20060;-86
2022/05/09 15:04:57;;;;;;;5.00;1.92;;;;;;;;;;5082486;28;20475;-86
2022/05/09 15:07:44;;;;;;;3.60;2.00;;;;;;;;;;5067032;28;20394;-86
2022/05/09 15:10:32;;;;;;;15.40;2.30;;;;;;;;;;5075312;28;20044;-87
2022/05/09 15:13:20;;;;;;;6.10;1.80;;;;;;;;;;5074592;28;20487;-86
2022/05/09 15:16:08;;;;;;;3.65;1.70;;;;;;;;;;5074844;28;20044;-85
2022/05/09 15:18:54;;;;;;;6.13;1.85;;;;;;;;;;5081293;28;20049;-85
2022/05/09 15:21:41;;;;;;;4.40;2.00;;;;;;;;;;5066935;28;20056;-85
2022/05/09 15:24:26;;;;;;;4.47;1.90;;;;;;;;;;5075147;28;20040;-85
2022/05/09 15:27:14;;;;;;;4.95;1.95;;;;;;;;;;5081630;28;20049;-85
2022/05/09 15:30:00;;;;;;;6.32;1.80;;;;;;;;;;5081502;28;20476;-85
2022/05/09 15:32:47;;;;;;;5.53;1.80;;;;;;;;;;5081468;28;20048;-86
2022/05/09 15:35:32;;;;;;;5.13;1.70;;;;;;;;;;5065917;28;20049;-86
2022/05/09 15:38:18;;;;;;;4.18;1.95;;;;;;;;;;5074378;28;20044;-85
2022/05/09 15:41:09;;;;;;;9.25;2.20;;;;;;;;;;5074663;28;20048;-87
2022/05/09 15:44:02;;;;;;;3.88;1.90;;;;;;;;;;5073944;28;20041;-85
2022/05/09 15:46:49;;;;;;;5.88;1.80;;;;;;;;;;5066029;28;20048;-86
2022/05/09 15:49:34;;;;;;;2.65;1.60;;;;;;;;;;5052017;28;20048;-88
2022/05/09 15:52:20;;;;;;;7.05;1.92;;;;;;;;;;5081535;28;20045;-87
2022/05/09 15:55:06;;;;;;;8.88;2.20;;;;;;;;;;5081493;28;20040;-87
2022/05/09 15:57:55;;;;;;;5.38;1.83;;;;;;;;;;5073825;28;20037;-86
2022/05/09 16:00:41;;;;;;;4.20;1.88;;;;;;;;;;5066165;28;20056;-86
2022/05/09 16:03:27;;;;;;;3.28;1.75;;;;;;;;;;5080561;28;20052;-85
2022/05/09 16:12:21;;;;;;;8.07;2.45;;;;;;;;;;5074430;28;20048;-86
2022/05/09 16:15:06;;;;;;;4.05;1.90;;;;;;;;;;5059483;28;20044;-86
2022/05/09 16:17:59;;;;;;;4.28;2.05;;;;;;;;;;5074950;28;20044;-86
2022/05/09 16:20:45;;;;;;;4.17;1.80;;;;;;;;;;5074649;28;20060;-85
2022/05/09 16:23:32;;;;;;;5.97;1.98;;;;;;;;;;5075740;28;20048;-86
2022/05/09 16:26:17;;;;;;;4.20;2.40;;;;;;;;;;5076660;28;20391;-86
2022/05/09 16:29:06;;;;;;;9.18;2.47;;;;;;;;;;5082056;28;20045;-86
2022/05/09 16:31:51;;;;;;;5.50;2.25;;;;;;;;;;5060455;28;20056;-84
2022/05/09 16:34:40;;;;;;;6.35;2.30;;;;;;;;;;5068946;28;20061;-83
2022/05/09 16:37:27;;;;;;;6.90;2.20;;;;;;;;;;5075855;28;20403;-85
2022/05/09 16:40:15;;;;;;;7.97;2.67;;;;;;;;;;5059327;28;20040;-84
2022/05/09 16:43:00;;;;;;;7.20;2.67;;;;;;;;;;5052150;28;20044;-85
2022/05/09 16:45:46;;;;;;;12.07;2.20;;;;;;;;;;5046067;28;20045;-85
2022/05/09 16:48:35;;;;;;;9.82;2.30;;;;;;;;;;5054537;28;20045;-86
2022/05/09 16:51:20;;;;;;;6.00;2.10;;;;;;;;;;5031500;28;20049;-84
2022/05/09 16:54:06;;;;;;;6.75;2.50;;;;;;;;;;5054211;28;20041;-84
2022/05/09 16:56:51;;;;;;;5.00;2.90;;;;;;;;;;5039314;28;20045;-86
2022/05/09 16:59:43;;;;;;;8.05;2.70;;;;;;;;;;5039138;28;20045;-85
2022/05/09 17:02:29;;;;;;;9.13;4.20;;;;;;;;;;5054166;28;20037;-87
2022/05/09 17:05:17;;;;;;;16.73;4.03;;;;;;;;;;5054864;28;20033;-85
2022/05/09 17:08:02;;;;;;;8.48;3.95;;;;;;;;;;5039213;28;20052;-84
2022/05/09 17:10:48;;;;;;;14.30;5.35;;;;;;;;;;5053738;28;20045;-84
2022/05/09 17:13:34;;;;;;;9.55;3.95;;;;;;;;;;5053641;28;20049;-86
2022/05/09 17:16:20;;;;;;;12.30;3.70;;;;;;;;;;5038813;28;20045;-85
2022/05/09 17:19:09;;;;;;;6.78;2.90;;;;;;;;;;5054569;28;20476;-85